Terminal Aerodrome Forecast
Issued by NWS

Home | Current Version | Previous Version | Text Only | Print | Product List | Glossary Off
Versions: 1 2 3 4 5 6 7 8 9 10 11 12 13 14

000
FTUS43 KMPX 312320
TAFRNH
TAF
KRNH 312320Z 0100/0124 11006KT P6SM SCT150
     FM011500 13008G12KT P6SM SCT150=

USA.gov is the U.S. government's official web portal to all federal, state and local government web resources and services.